createdAt,value
2019-02-27T00:03:32.369Z,1025.29
2019-02-27T00:08:28.007Z,1025.29
2019-02-27T00:13:25.444Z,1025.20
2019-02-27T00:18:23.777Z,1025.17
2019-02-27T00:23:19.161Z,1025.14
2019-02-27T00:28:14.756Z,1025.05
2019-02-27T00:33:10.822Z,1025.05
2019-02-27T00:38:06.640Z,1025.15
2019-02-27T00:43:02.471Z,1025.02
2019-02-27T00:47:58.333Z,1024.99
2019-02-27T00:52:54.188Z,1024.86
2019-02-27T00:57:51.804Z,1024.77
2019-02-27T01:02:52.769Z,1024.86
2019-02-27T01:07:47.996Z,1024.83
2019-02-27T01:12:43.584Z,1024.74
2019-02-27T01:17:39.080Z,1024.86
2019-02-27T01:22:34.763Z,1024.73
2019-02-27T01:27:31.271Z,1024.67
2019-02-27T01:32:28.861Z,1024.51
2019-02-27T01:37:25.496Z,1024.51
2019-02-27T01:42:21.039Z,1024.43
2019-02-27T01:47:16.911Z,1024.42
2019-02-27T01:52:12.437Z,1024.34
2019-02-27T01:57:07.990Z,1024.28
2019-02-27T02:02:04.194Z,1024.29
2019-02-27T02:06:59.509Z,1024.26
2019-02-27T02:11:55.290Z,1024.08
2019-02-27T02:16:50.938Z,1023.95
2019-02-27T02:21:46.920Z,1023.83
2019-02-27T02:26:42.756Z,1023.77
2019-02-27T02:31:41.624Z,1023.68
2019-02-27T02:36:37.134Z,1023.62
2019-02-27T02:41:33.463Z,1023.53
2019-02-27T02:46:29.430Z,1023.52
2019-02-27T02:51:28.674Z,1023.42
2019-02-27T02:56:25.135Z,1023.31
2019-02-27T03:01:20.618Z,1023.22
2019-02-27T03:06:16.227Z,1023.12
2019-02-27T03:11:17.920Z,1023.10
2019-02-27T03:16:10.605Z,1023.07
2019-02-27T03:21:06.193Z,1022.99
2019-02-27T03:26:02.223Z,1022.95
2019-02-27T03:30:57.667Z,1022.82
2019-02-27T03:35:53.274Z,1022.79
2019-02-27T03:40:49.025Z,1022.73
2019-02-27T03:45:44.712Z,1022.72
2019-02-27T03:50:42.074Z,1022.75
2019-02-27T03:55:37.490Z,1022.70
2019-02-27T04:00:33.106Z,1022.51
2019-02-27T04:05:28.817Z,1022.61
2019-02-27T04:10:30.964Z,1022.57
2019-02-27T04:15:23.687Z,1022.68
2019-02-27T04:20:19.161Z,1022.68
2019-02-27T04:25:14.766Z,1022.67
2019-02-27T04:30:14.755Z,1022.80
2019-02-27T04:35:10.024Z,1022.69
2019-02-27T04:40:05.702Z,1022.54
2019-02-27T04:45:02.209Z,1022.68
2019-02-27T04:49:57.656Z,1022.61
2019-02-27T04:54:53.298Z,1022.51
2019-02-27T04:59:49.758Z,1022.44
2019-02-27T05:04:46.655Z,1022.41
2019-02-27T05:09:43.437Z,1022.47
2019-02-27T05:14:39.301Z,1022.43
2019-02-27T05:19:37.217Z,1022.39
2019-02-27T05:24:33.647Z,1022.35
2019-02-27T05:29:29.768Z,1022.34
2019-02-27T05:34:25.206Z,1022.40
2019-02-27T05:39:21.128Z,1022.43
2019-02-27T05:44:21.450Z,1022.47
2019-02-27T05:49:15.707Z,1022.47
2019-02-27T05:54:10.936Z,1022.53
2019-02-27T05:59:07.792Z,1022.54
2019-02-27T06:04:03.077Z,1022.37
2019-02-27T06:08:58.537Z,1022.24
2019-02-27T06:13:54.088Z,1022.17
2019-02-27T06:18:49.583Z,1022.28
2019-02-27T06:23:45.195Z,1022.23
2019-02-27T06:28:41.905Z,1022.24
2019-02-27T06:33:37.229Z,1022.27
2019-02-27T06:38:32.993Z,1022.21
2019-02-27T06:43:29.445Z,1022.06
2019-02-27T06:48:24.774Z,1022.11
2019-02-27T06:53:20.299Z,1022.07
2019-02-27T06:58:16.653Z,1022.08
2019-02-27T07:03:13.382Z,1022.12
2019-02-27T07:08:08.840Z,1022.19
2019-02-27T07:13:04.759Z,1022.15
2019-02-27T07:18:00.502Z,1022.03
2019-02-27T07:22:56.371Z,1021.97
2019-02-27T07:27:53.182Z,1021.97
2019-02-27T07:32:48.861Z,1021.99
2019-02-27T07:37:47.440Z,1022.02
2019-02-27T07:42:43.111Z,1022.07
2019-02-27T07:47:38.728Z,1021.95
2019-02-27T07:52:34.626Z,1021.99
2019-02-27T07:57:30.534Z,1021.96
2019-02-27T08:02:26.457Z,1021.92
2019-02-27T08:07:22.281Z,1022.01
2019-02-27T08:12:19.988Z,1022.03
2019-02-27T08:17:17.847Z,1022.06
2019-02-27T08:22:13.257Z,1022.07
2019-02-27T08:27:09.626Z,1021.99
2019-02-27T08:32:06.633Z,1021.97
2019-02-27T08:37:03.127Z,1021.84
2019-02-27T08:42:03.341Z,1021.66
2019-02-27T08:46:58.060Z,1021.75
2019-02-27T08:51:54.510Z,1021.69
2019-02-27T08:56:50.574Z,1021.63
2019-02-27T09:01:46.387Z,1021.69
2019-02-27T09:06:43.118Z,1021.62
2019-02-27T09:11:40.042Z,1021.60
2019-02-27T09:16:37.261Z,1021.49
2019-02-27T09:21:32.723Z,1021.45
2019-02-27T09:26:29.317Z,1021.55
2019-02-27T09:31:25.491Z,1021.34
2019-02-27T09:36:21.122Z,1021.37
2019-02-27T09:41:17.638Z,1021.23
2019-02-27T09:46:13.871Z,1021.20
2019-02-27T09:51:09.939Z,1021.17
2019-02-27T09:56:06.100Z,1021.28
2019-02-27T10:01:03.177Z,1021.23
2019-02-27T10:06:00.642Z,1021.16
2019-02-27T10:10:56.423Z,1021.03
2019-02-27T10:15:54.088Z,1021.03
2019-02-27T10:20:49.688Z,1020.92
2019-02-27T10:25:45.937Z,1020.94
2019-02-27T10:30:41.801Z,1020.93
2019-02-27T10:35:39.504Z,1020.91
2019-02-27T10:40:35.865Z,1020.80
2019-02-27T10:45:32.136Z,1020.87
2019-02-27T10:50:29.314Z,1020.66
2019-02-27T10:55:26.854Z,1020.56
2019-02-27T11:00:24.889Z,1020.59
2019-02-27T11:05:22.000Z,1020.41
2019-02-27T11:10:18.734Z,1020.31
2019-02-27T11:15:14.611Z,1020.22
2019-02-27T11:20:11.526Z,1020.20
2019-02-27T11:25:07.677Z,1020.07
2019-02-27T11:30:03.990Z,1020.04
2019-02-27T11:35:00.713Z,1019.89
2019-02-27T11:39:57.068Z,1019.79
2019-02-27T11:44:52.934Z,1019.75
2019-02-27T11:49:48.884Z,1019.63
2019-02-27T11:54:44.887Z,1019.51
2019-02-27T11:59:40.461Z,1019.40
2019-02-27T12:04:35.836Z,1019.31
2019-02-27T12:09:34.973Z,1019.29
2019-02-27T12:14:30.112Z,1019.16
2019-02-27T12:19:25.996Z,1019.08
2019-02-27T12:24:21.663Z,1018.95
2019-02-27T12:29:18.176Z,1018.91
2019-02-27T12:34:15.365Z,1018.83
2019-02-27T12:39:15.287Z,1018.82
2019-02-27T12:44:10.402Z,1018.60
2019-02-27T12:49:07.648Z,1018.61
2019-02-27T12:54:04.632Z,1018.57
2019-02-27T12:58:59.988Z,1018.49
2019-02-27T13:03:56.858Z,1018.37
2019-02-27T13:08:52.923Z,1018.31
2019-02-27T13:13:48.732Z,1018.28
2019-02-27T13:18:46.486Z,1018.25
2019-02-27T13:23:42.387Z,1018.15
2019-02-27T13:28:37.868Z,1018.08
2019-02-27T13:33:35.523Z,1018.01
2019-02-27T13:38:32.600Z,1017.89
2019-02-27T13:43:28.624Z,1017.83
2019-02-27T13:48:25.191Z,1017.70
2019-02-27T13:53:25.774Z,1017.68
2019-02-27T13:58:21.498Z,1017.57
2019-02-27T14:03:17.497Z,1017.53
2019-02-27T14:08:13.976Z,1017.45
2019-02-27T14:13:10.011Z,1017.28
2019-02-27T14:18:06.788Z,1017.21
2019-02-27T14:23:02.490Z,1017.21
2019-02-27T14:27:57.955Z,1017.22
2019-02-27T14:32:53.717Z,1017.15
2019-02-27T14:37:51.038Z,1017.08
2019-02-27T14:42:46.335Z,1017.08
2019-02-27T14:47:41.957Z,1016.95
2019-02-27T14:52:37.917Z,1016.88
2019-02-27T14:57:33.487Z,1016.77
2019-02-27T15:02:29.072Z,1016.63
2019-02-27T15:07:25.171Z,1016.55
2019-02-27T15:12:20.696Z,1016.47
2019-02-27T15:17:20.287Z,1016.41
2019-02-27T15:22:15.395Z,1016.36
2019-02-27T15:27:10.807Z,1016.33
2019-02-27T15:32:06.538Z,1016.06
2019-02-27T15:37:04.243Z,1016.03
2019-02-27T15:42:00.311Z,1016.00
2019-02-27T15:46:56.660Z,1015.89
2019-02-27T15:51:52.679Z,1015.82
2019-02-27T15:56:49.342Z,1015.80
2019-02-27T16:01:44.676Z,1015.70
2019-02-27T16:06:41.797Z,1015.73
2019-02-27T16:11:37.016Z,1015.66
2019-02-27T16:16:32.918Z,1015.47
2019-02-27T16:21:29.042Z,1015.35
2019-02-27T16:26:27.167Z,1015.29
2019-02-27T16:31:22.863Z,1015.23
2019-02-27T16:36:18.504Z,1015.12
2019-02-27T16:41:13.938Z,1015.07
2019-02-27T16:46:10.661Z,1015.04
2019-02-27T16:51:07.474Z,1014.96
2019-02-27T16:56:04.082Z,1014.99
2019-02-27T17:00:59.859Z,1014.92
2019-02-27T17:05:55.479Z,1014.91
2019-02-27T17:10:51.920Z,1014.79
2019-02-27T17:15:47.466Z,1014.73
2019-02-27T17:20:45.767Z,1014.66
2019-02-27T17:25:41.306Z,1014.62
2019-02-27T17:30:38.165Z,1014.52
2019-02-27T17:35:33.644Z,1014.39
2019-02-27T17:40:29.411Z,1014.32
2019-02-27T17:45:24.959Z,1014.39
2019-02-27T17:50:20.707Z,1014.27
2019-02-27T17:55:16.478Z,1014.24
2019-02-27T18:00:12.945Z,1014.19
2019-02-27T18:05:11.089Z,1014.12
2019-02-27T18:10:07.769Z,1014.08
2019-02-27T18:15:05.088Z,1013.97
2019-02-27T18:20:00.508Z,1013.99
2019-02-27T18:24:56.236Z,1013.89
2019-02-27T18:29:51.976Z,1013.78
2019-02-27T18:34:47.863Z,1013.81
2019-02-27T18:39:43.548Z,1013.67
2019-02-27T18:44:41.466Z,1013.75
2019-02-27T18:49:36.794Z,1013.78
2019-02-27T18:54:33.361Z,1013.71
2019-02-27T18:59:30.265Z,1013.61
2019-02-27T19:04:25.730Z,1013.63
2019-02-27T19:09:21.511Z,1013.57
2019-02-27T19:14:17.261Z,1013.53
2019-02-27T19:19:13.770Z,1013.50
2019-02-27T19:24:10.737Z,1013.46
2019-02-27T19:29:07.445Z,1013.30
2019-02-27T19:34:02.900Z,1013.40
2019-02-27T19:38:59.272Z,1013.29
2019-02-27T19:43:55.951Z,1013.40
2019-02-27T19:48:51.349Z,1013.40
2019-02-27T19:53:46.985Z,1013.28
2019-02-27T19:58:43.403Z,1013.24
2019-02-27T20:03:40.271Z,1013.21
2019-02-27T20:08:36.407Z,1013.15
2019-02-27T20:13:32.756Z,1013.18
2019-02-27T20:18:28.703Z,1013.14
2019-02-27T20:23:26.412Z,1013.13
2019-02-27T20:28:21.399Z,1013.02
2019-02-27T20:33:17.035Z,1012.98
2019-02-27T20:38:15.970Z,1012.91
2019-02-27T20:43:15.577Z,1012.97
2019-02-27T20:48:11.510Z,1012.93
2019-02-27T20:53:06.948Z,1012.81
2019-02-27T20:58:02.814Z,1012.74
2019-02-27T21:03:02.506Z,1012.70
2019-02-27T21:08:01.981Z,1012.70
2019-02-27T21:12:56.653Z,1012.63
2019-02-27T21:17:57.589Z,1012.61
2019-02-27T21:22:52.693Z,1012.45
2019-02-27T21:27:48.245Z,1012.59
2019-02-27T21:32:43.804Z,1012.59
2019-02-27T21:37:44.388Z,1012.54
2019-02-27T21:42:39.616Z,1012.44
2019-02-27T21:47:36.334Z,1012.42
2019-02-27T21:52:31.475Z,1012.31
2019-02-27T21:57:27.535Z,1012.27
2019-02-27T22:02:23.548Z,1012.32
2019-02-27T22:07:20.081Z,1012.30
2019-02-27T22:12:15.674Z,1012.34
2019-02-27T22:17:11.913Z,1012.13
2019-02-27T22:22:08.128Z,1012.25
2019-02-27T22:27:05.507Z,1012.24
2019-02-27T22:32:01.037Z,1012.08
2019-02-27T22:36:56.775Z,1012.11
2019-02-27T22:41:52.345Z,1012.06
2019-02-27T22:46:48.607Z,1012.03
2019-02-27T22:51:45.276Z,1011.98
2019-02-27T22:56:42.613Z,1012.00
2019-02-27T23:01:38.331Z,1012.04
2019-02-27T23:06:34.137Z,1012.01
2019-02-27T23:11:30.055Z,1011.84
2019-02-27T23:16:25.751Z,1011.83
2019-02-27T23:21:21.490Z,1011.82
2019-02-27T23:26:19.852Z,1011.82
2019-02-27T23:31:15.540Z,1011.83
2019-02-27T23:36:11.172Z,1011.81
2019-02-27T23:41:07.020Z,1011.78
2019-02-27T23:46:03.725Z,1011.68
2019-02-27T23:50:59.205Z,1011.72
2019-02-27T23:55:55.829Z,1011.77
